sensor_id;sensor_type;location;lat;lon;timestamp;pressure;altitude;pressure_sealevel;temperature;humidity
56681;BME280;42558;52.388;13.390;2023-04-28T00:00:36;101527.53;;;1.67;96.06
56681;BME280;42558;52.388;13.390;2023-04-28T00:03:06;101525.55;;;1.68;96.05
56681;BME280;42558;52.388;13.390;2023-04-28T00:05:36;101523.54;;;1.67;96.35
56681;BME280;42558;52.388;13.390;2023-04-28T00:08:07;101520.52;;;1.66;96.22
56681;BME280;42558;52.388;13.390;2023-04-28T00:10:36;101521.14;;;1.65;96.19
56681;BME280;42558;52.388;13.390;2023-04-28T00:13:06;101521.61;;;1.64;96.41
56681;BME280;42558;52.388;13.390;2023-04-28T00:15:36;101516.09;;;1.61;96.07
56681;BME280;42558;52.388;13.390;2023-04-28T00:18:06;101517.00;;;1.59;95.88
56681;BME280;42558;52.388;13.390;2023-04-28T00:20:36;101514.58;;;1.57;95.55
56681;BME280;42558;52.388;13.390;2023-04-28T00:23:06;101513.83;;;1.59;95.59
56681;BME280;42558;52.388;13.390;2023-04-28T00:25:36;101511.01;;;1.58;95.87
56681;BME280;42558;52.388;13.390;2023-04-28T00:28:06;101513.15;;;1.59;95.74
56681;BME280;42558;52.388;13.390;2023-04-28T00:30:35;101513.27;;;1.63;95.51
56681;BME280;42558;52.388;13.390;2023-04-28T00:33:05;101512.86;;;1.71;95.13
56681;BME280;42558;52.388;13.390;2023-04-28T00:35:35;101510.63;;;1.68;95.11
56681;BME280;42558;52.388;13.390;2023-04-28T00:38:05;101506.40;;;1.67;95.11
56681;BME280;42558;52.388;13.390;2023-04-28T00:40:37;101502.41;;;1.64;95.15
56681;BME280;42558;52.388;13.390;2023-04-28T00:43:07;101499.36;;;1.62;95.34
56681;BME280;42558;52.388;13.390;2023-04-28T00:45:37;101494.27;;;1.61;95.52
56681;BME280;42558;52.388;13.390;2023-04-28T00:48:07;101497.09;;;1.62;95.39
56681;BME280;42558;52.388;13.390;2023-04-28T00:50:37;101493.50;;;1.63;95.75
56681;BME280;42558;52.388;13.390;2023-04-28T00:53:07;101488.09;;;1.62;95.65
56681;BME280;42558;52.388;13.390;2023-04-28T00:55:38;101487.95;;;1.66;95.95
56681;BME280;42558;52.388;13.390;2023-04-28T00:58:08;101487.13;;;1.67;95.79
56681;BME280;42558;52.388;13.390;2023-04-28T01:00:38;101484.73;;;1.64;96.06
56681;BME280;42558;52.388;13.390;2023-04-28T01:03:08;101484.56;;;1.67;96.25
56681;BME280;42558;52.388;13.390;2023-04-28T01:05:36;101482.96;;;1.69;96.15
56681;BME280;42558;52.388;13.390;2023-04-28T01:08:05;101481.23;;;1.69;96.12
56681;BME280;42558;52.388;13.390;2023-04-28T01:10:33;101479.66;;;1.69;95.81
56681;BME280;42558;52.388;13.390;2023-04-28T01:13:01;101477.95;;;1.70;95.83
56681;BME280;42558;52.388;13.390;2023-04-28T01:15:30;101476.95;;;1.70;95.97
56681;BME280;42558;52.388;13.390;2023-04-28T01:17:58;101477.64;;;1.70;95.93
56681;BME280;42558;52.388;13.390;2023-04-28T01:20:27;101470.04;;;1.70;96.45
56681;BME280;42558;52.388;13.390;2023-04-28T01:22:55;101470.44;;;1.74;96.54
56681;BME280;42558;52.388;13.390;2023-04-28T01:25:24;101468.78;;;1.73;96.44
56681;BME280;42558;52.388;13.390;2023-04-28T01:27:52;101465.00;;;1.74;96.60
56681;BME280;42558;52.388;13.390;2023-04-28T01:30:20;101461.21;;;1.74;96.85
56681;BME280;42558;52.388;13.390;2023-04-28T01:32:49;101458.09;;;1.74;96.92
56681;BME280;42558;52.388;13.390;2023-04-28T01:35:17;101458.32;;;1.74;97.02
56681;BME280;42558;52.388;13.390;2023-04-28T01:37:46;101462.13;;;1.74;96.93
56681;BME280;42558;52.388;13.390;2023-04-28T01:40:14;101459.80;;;1.76;97.40
56681;BME280;42558;52.388;13.390;2023-04-28T01:42:43;101458.51;;;1.78;97.61
56681;BME280;42558;52.388;13.390;2023-04-28T01:45:11;101456.79;;;1.78;97.54
56681;BME280;42558;52.388;13.390;2023-04-28T01:47:39;101454.70;;;1.78;97.50
56681;BME280;42558;52.388;13.390;2023-04-28T01:50:08;101456.77;;;1.78;97.22
56681;BME280;42558;52.388;13.390;2023-04-28T01:52:36;101456.69;;;1.76;97.21
56681;BME280;42558;52.388;13.390;2023-04-28T01:55:05;101452.80;;;1.75;96.94
56681;BME280;42558;52.388;13.390;2023-04-28T01:57:33;101452.94;;;1.74;96.72
56681;BME280;42558;52.388;13.390;2023-04-28T02:00:03;101452.54;;;1.74;96.39
56681;BME280;42558;52.388;13.390;2023-04-28T02:02:33;101444.17;;;1.73;96.30
56681;BME280;42558;52.388;13.390;2023-04-28T02:05:02;101447.48;;;1.73;96.73
56681;BME280;42558;52.388;13.390;2023-04-28T02:07:30;101443.08;;;1.75;96.68
56681;BME280;42558;52.388;13.390;2023-04-28T02:09:59;101445.59;;;1.76;96.90
56681;BME280;42558;52.388;13.390;2023-04-28T02:12:27;101441.60;;;1.79;96.99
56681;BME280;42558;52.388;13.390;2023-04-28T02:14:56;101446.66;;;1.85;97.59
56681;BME280;42558;52.388;13.390;2023-04-28T02:17:24;101447.06;;;1.92;96.64
56681;BME280;42558;52.388;13.390;2023-04-28T02:19:56;101445.33;;;2.16;94.71
56681;BME280;42558;52.388;13.390;2023-04-28T02:22:26;101441.83;;;2.24;93.47
56681;BME280;42558;52.388;13.390;2023-04-28T02:24:56;101440.41;;;2.20;92.99
56681;BME280;42558;52.388;13.390;2023-04-28T02:27:26;101435.48;;;2.28;92.61
56681;BME280;42558;52.388;13.390;2023-04-28T02:29:56;101434.67;;;2.32;91.45
56681;BME280;42558;52.388;13.390;2023-04-28T02:32:26;101432.23;;;2.32;90.61
56681;BME280;42558;52.388;13.390;2023-04-28T02:34:56;101431.89;;;2.38;90.02
56681;BME280;42558;52.388;13.390;2023-04-28T02:37:26;101430.96;;;2.50;88.91
56681;BME280;42558;52.388;13.390;2023-04-28T02:39:56;101424.98;;;2.51;88.51
56681;BME280;42558;52.388;13.390;2023-04-28T02:42:26;101424.21;;;2.56;88.09
56681;BME280;42558;52.388;13.390;2023-04-28T02:44:56;101422.45;;;2.59;87.72
56681;BME280;42558;52.388;13.390;2023-04-28T02:47:26;101418.40;;;2.58;88.09
56681;BME280;42558;52.388;13.390;2023-04-28T02:49:56;101413.11;;;2.59;87.98
56681;BME280;42558;52.388;13.390;2023-04-28T02:52:26;101414.64;;;2.62;88.08
56681;BME280;42558;52.388;13.390;2023-04-28T02:54:56;101416.90;;;2.65;87.87
56681;BME280;42558;52.388;13.390;2023-04-28T02:57:26;101416.06;;;2.65;87.62
56681;BME280;42558;52.388;13.390;2023-04-28T02:59:56;101413.05;;;2.64;88.13
56681;BME280;42558;52.388;13.390;2023-04-28T03:02:26;101416.05;;;2.62;88.53
56681;BME280;42558;52.388;13.390;2023-04-28T03:04:56;101415.06;;;2.63;88.64
56681;BME280;42558;52.388;13.390;2023-04-28T03:07:26;101410.95;;;2.61;89.00
56681;BME280;42558;52.388;13.390;2023-04-28T03:09:56;101407.98;;;2.55;89.57
56681;BME280;42558;52.388;13.390;2023-04-28T03:12:25;101408.19;;;2.52;90.16
56681;BME280;42558;52.388;13.390;2023-04-28T03:14:55;101403.85;;;2.49;90.69
56681;BME280;42558;52.388;13.390;2023-04-28T03:17:25;101404.32;;;2.48;91.44
56681;BME280;42558;52.388;13.390;2023-04-28T03:19:55;101404.81;;;2.47;91.66
56681;BME280;42558;52.388;13.390;2023-04-28T03:22:25;101402.10;;;2.52;91.89
56681;BME280;42558;52.388;13.390;2023-04-28T03:24:55;101398.56;;;2.54;91.42
56681;BME280;42558;52.388;13.390;2023-04-28T03:27:26;101397.97;;;2.55;91.59
56681;BME280;42558;52.388;13.390;2023-04-28T03:29:56;101396.64;;;2.56;91.53
56681;BME280;42558;52.388;13.390;2023-04-28T03:32:26;101396.80;;;2.57;91.71
56681;BME280;42558;52.388;13.390;2023-04-28T03:34:56;101392.23;;;2.55;91.85
56681;BME280;42558;52.388;13.390;2023-04-28T03:37:25;101390.50;;;2.55;91.97
56681;BME280;42558;52.388;13.390;2023-04-28T03:39:56;101384.60;;;2.55;92.20
56681;BME280;42558;52.388;13.390;2023-04-28T03:42:26;101389.86;;;2.56;92.31
56681;BME280;42558;52.388;13.390;2023-04-28T03:44:55;101393.45;;;2.55;92.68
56681;BME280;42558;52.388;13.390;2023-04-28T03:47:24;101394.38;;;2.53;92.57
56681;BME280;42558;52.388;13.390;2023-04-28T03:49:52;101390.10;;;2.52;92.68
56681;BME280;42558;52.388;13.390;2023-04-28T03:52:21;101385.38;;;2.51;93.12
56681;BME280;42558;52.388;13.390;2023-04-28T03:54:49;101386.35;;;2.49;92.94
56681;BME280;42558;52.388;13.390;2023-04-28T03:57:18;101380.02;;;2.51;92.89
56681;BME280;42558;52.388;13.390;2023-04-28T03:59:46;101376.09;;;2.49;92.87
56681;BME280;42558;52.388;13.390;2023-04-28T04:02:14;101377.34;;;2.46;93.35
56681;BME280;42558;52.388;13.390;2023-04-28T04:04:43;101377.41;;;2.48;93.54
56681;BME280;42558;52.388;13.390;2023-04-28T04:07:12;101374.27;;;2.48;93.88
56681;BME280;42558;52.388;13.390;2023-04-28T04:09:40;101373.61;;;2.48;94.09
56681;BME280;42558;52.388;13.390;2023-04-28T04:12:10;101372.58;;;2.52;93.41
56681;BME280;42558;52.388;13.390;2023-04-28T04:14:42;101369.38;;;2.56;93.21
56681;BME280;42558;52.388;13.390;2023-04-28T04:17:12;101370.27;;;2.63;92.32
56681;BME280;42558;52.388;13.390;2023-04-28T04:19:42;101365.05;;;2.66;91.82
56681;BME280;42558;52.388;13.390;2023-04-28T04:22:12;101365.55;;;2.66;91.36
56681;BME280;42558;52.388;13.390;2023-04-28T04:24:42;101360.12;;;2.71;91.46
56681;BME280;42558;52.388;13.390;2023-04-28T04:27:11;101358.11;;;2.75;91.42
56681;BME280;42558;52.388;13.390;2023-04-28T04:29:41;101359.42;;;2.74;91.48
56681;BME280;42558;52.388;13.390;2023-04-28T04:32:11;101358.09;;;2.72;91.55
56681;BME280;42558;52.388;13.390;2023-04-28T04:34:41;101354.81;;;2.82;91.37
56681;BME280;42558;52.388;13.390;2023-04-28T04:37:11;101357.95;;;2.88;90.66
56681;BME280;42558;52.388;13.390;2023-04-28T04:39:41;101358.23;;;2.93;90.52
56681;BME280;42558;52.388;13.390;2023-04-28T04:42:12;101357.84;;;3.03;90.47
56681;BME280;42558;52.388;13.390;2023-04-28T04:44:51;101358.10;;;3.11;90.43
56681;BME280;42558;52.388;13.390;2023-04-28T04:47:21;101360.29;;;3.23;89.74
56681;BME280;42558;52.388;13.390;2023-04-28T04:49:52;101357.09;;;3.28;89.27
56681;BME280;42558;52.388;13.390;2023-04-28T04:52:22;101355.51;;;3.31;89.38
56681;BME280;42558;52.388;13.390;2023-04-28T04:54:52;101350.94;;;3.40;89.48
56681;BME280;42558;52.388;13.390;2023-04-28T04:57:22;101351.09;;;3.39;88.88
56681;BME280;42558;52.388;13.390;2023-04-28T04:59:52;101347.16;;;3.50;88.98
56681;BME280;42558;52.388;13.390;2023-04-28T05:02:22;101345.86;;;3.63;88.07
56681;BME280;42558;52.388;13.390;2023-04-28T05:04:52;101343.39;;;3.72;87.43
56681;BME280;42558;52.388;13.390;2023-04-28T05:07:30;101345.73;;;3.80;86.93
56681;BME280;42558;52.388;13.390;2023-04-28T05:10:00;101339.52;;;3.89;86.63
56681;BME280;42558;52.388;13.390;2023-04-28T05:12:30;101335.92;;;3.97;86.32
56681;BME280;42558;52.388;13.390;2023-04-28T05:15:00;101329.56;;;4.05;85.95
56681;BME280;42558;52.388;13.390;2023-04-28T05:17:30;101333.59;;;4.21;85.58
56681;BME280;42558;52.388;13.390;2023-04-28T05:20:00;101333.36;;;4.34;84.35
56681;BME280;42558;52.388;13.390;2023-04-28T05:22:30;101333.67;;;4.47;83.74
56681;BME280;42558;52.388;13.390;2023-04-28T05:25:00;101329.40;;;4.49;82.91
56681;BME280;42558;52.388;13.390;2023-04-28T05:27:30;101322.42;;;4.63;82.63
56681;BME280;42558;52.388;13.390;2023-04-28T05:30:00;101319.80;;;4.79;82.53
56681;BME280;42558;52.388;13.390;2023-04-28T05:32:30;101317.27;;;4.96;81.63
56681;BME280;42558;52.388;13.390;2023-04-28T05:35:00;101311.00;;;5.11;80.87
56681;BME280;42558;52.388;13.390;2023-04-28T05:37:30;101315.27;;;5.17;80.89
56681;BME280;42558;52.388;13.390;2023-04-28T05:40:00;101304.56;;;5.36;80.26
56681;BME280;42558;52.388;13.390;2023-04-28T05:42:30;101303.61;;;5.50;79.54
56681;BME280;42558;52.388;13.390;2023-04-28T05:45:00;101298.63;;;5.64;78.92
56681;BME280;42558;52.388;13.390;2023-04-28T05:47:31;101299.93;;;5.87;78.25
56681;BME280;42558;52.388;13.390;2023-04-28T05:49:59;101293.79;;;5.98;77.94
56681;BME280;42558;52.388;13.390;2023-04-28T05:52:28;101295.55;;;6.03;76.16
56681;BME280;42558;52.388;13.390;2023-04-28T05:54:56;101293.20;;;6.27;75.31
56681;BME280;42558;52.388;13.390;2023-04-28T05:57:25;101283.48;;;6.51;74.52
56681;BME280;42558;52.388;13.390;2023-04-28T05:59:53;101281.81;;;6.71;72.83
56681;BME280;42558;52.388;13.390;2023-04-28T06:02:21;101281.66;;;6.72;71.80
56681;BME280;42558;52.388;13.390;2023-04-28T06:04:53;101278.27;;;6.94;71.28
56681;BME280;42558;52.388;13.390;2023-04-28T06:07:21;101273.42;;;6.86;70.33
56681;BME280;42558;52.388;13.390;2023-04-28T06:09:50;101271.19;;;7.01;70.43
56681;BME280;42558;52.388;13.390;2023-04-28T06:12:18;101271.05;;;7.21;70.64
56681;BME280;42558;52.388;13.390;2023-04-28T06:14:47;101271.55;;;7.25;69.98
56681;BME280;42558;52.388;13.390;2023-04-28T06:17:15;101268.91;;;7.35;69.62
56681;BME280;42558;52.388;13.390;2023-04-28T06:19:43;101269.83;;;7.31;69.37
56681;BME280;42558;52.388;13.390;2023-04-28T06:22:12;101263.05;;;7.32;69.25
56681;BME280;42558;52.388;13.390;2023-04-28T06:24:40;101260.45;;;7.38;69.13
56681;BME280;42558;52.388;13.390;2023-04-28T06:27:09;101261.59;;;7.36;68.63
56681;BME280;42558;52.388;13.390;2023-04-28T06:29:37;101258.77;;;7.41;68.79
56681;BME280;42558;52.388;13.390;2023-04-28T06:32:05;101254.98;;;7.42;68.53
56681;BME280;42558;52.388;13.390;2023-04-28T06:34:34;101252.92;;;7.49;68.26
56681;BME280;42558;52.388;13.390;2023-04-28T06:37:02;101249.53;;;7.52;67.78
56681;BME280;42558;52.388;13.390;2023-04-28T06:39:31;101248.13;;;7.57;67.42
56681;BME280;42558;52.388;13.390;2023-04-28T06:41:59;101248.43;;;7.66;66.88
56681;BME280;42558;52.388;13.390;2023-04-28T06:44:28;101247.80;;;7.73;66.25
56681;BME280;42558;52.388;13.390;2023-04-28T06:46:56;101252.05;;;7.91;65.14
56681;BME280;42558;52.388;13.390;2023-04-28T06:49:25;101245.98;;;8.55;64.73
56681;BME280;42558;52.388;13.390;2023-04-28T06:51:53;101234.85;;;9.13;61.51
56681;BME280;42558;52.388;13.390;2023-04-28T06:54:21;101233.48;;;9.62;60.49
56681;BME280;42558;52.388;13.390;2023-04-28T06:56:50;101228.81;;;9.44;59.36
56681;BME280;42558;52.388;13.390;2023-04-28T06:59:18;101226.86;;;9.35;60.00
56681;BME280;42558;52.388;13.390;2023-04-28T07:01:46;101221.71;;;9.34;60.63
56681;BME280;42558;52.388;13.390;2023-04-28T07:04:15;101217.73;;;9.71;59.60
56681;BME280;42558;52.388;13.390;2023-04-28T07:06:43;101217.40;;;9.79;58.76
56681;BME280;42558;52.388;13.390;2023-04-28T07:09:12;101213.42;;;10.11;58.16
56681;BME280;42558;52.388;13.390;2023-04-28T07:11:40;101212.91;;;10.20;57.32
56681;BME280;42558;52.388;13.390;2023-04-28T07:14:09;101207.05;;;10.39;56.53
56681;BME280;42558;52.388;13.390;2023-04-28T07:16:37;101208.71;;;10.20;56.46
56681;BME280;42558;52.388;13.390;2023-04-28T07:19:05;101203.84;;;10.07;56.55
56681;BME280;42558;52.388;13.390;2023-04-28T07:21:34;101197.21;;;10.25;56.49
56681;BME280;42558;52.388;13.390;2023-04-28T07:24:02;101190.70;;;10.24;55.36
56681;BME280;42558;52.388;13.390;2023-04-28T07:26:32;101189.85;;;10.67;56.18
56681;BME280;42558;52.388;13.390;2023-04-28T07:29:02;101182.15;;;11.14;54.77
56681;BME280;42558;52.388;13.390;2023-04-28T07:31:32;101179.92;;;11.08;54.35
56681;BME280;42558;52.388;13.390;2023-04-28T07:34:02;101182.40;;;10.30;55.50
56681;BME280;42558;52.388;13.390;2023-04-28T07:36:33;101178.71;;;10.30;56.70
56681;BME280;42558;52.388;13.390;2023-04-28T07:39:03;101177.77;;;10.35;56.00
56681;BME280;42558;52.388;13.390;2023-04-28T07:41:37;101175.27;;;10.50;57.09
56681;BME280;42558;52.388;13.390;2023-04-28T07:44:07;101172.48;;;10.51;55.31
56681;BME280;42558;52.388;13.390;2023-04-28T07:46:37;101168.60;;;10.42;54.47
56681;BME280;42558;52.388;13.390;2023-04-28T07:49:07;101163.08;;;10.73;54.34
56681;BME280;42558;52.388;13.390;2023-04-28T07:51:38;101162.53;;;11.20;53.24
56681;BME280;42558;52.388;13.390;2023-04-28T07:54:09;101153.86;;;11.17;52.75
56681;BME280;42558;52.388;13.390;2023-04-28T07:56:39;101153.45;;;11.57;51.60
56681;BME280;42558;52.388;13.390;2023-04-28T07:59:09;101155.59;;;11.47;51.33
56681;BME280;42558;52.388;13.390;2023-04-28T08:01:39;101152.52;;;11.97;51.24
56681;BME280;42558;52.388;13.390;2023-04-28T08:04:09;101149.70;;;12.10;49.59
56681;BME280;42558;52.388;13.390;2023-04-28T08:06:40;101151.33;;;11.66;50.17
56681;BME280;42558;52.388;13.390;2023-04-28T08:09:10;101150.31;;;11.47;50.95
56681;BME280;42558;52.388;13.390;2023-04-28T08:11:40;101140.72;;;12.24;50.00
56681;BME280;42558;52.388;13.390;2023-04-28T08:14:10;101144.44;;;12.13;49.45
56681;BME280;42558;52.388;13.390;2023-04-28T08:16:40;101142.80;;;11.95;50.62
56681;BME280;42558;52.388;13.390;2023-04-28T08:19:10;101134.76;;;12.56;49.42
56681;BME280;42558;52.388;13.390;2023-04-28T08:21:40;101131.77;;;12.56;49.17
56681;BME280;42558;52.388;13.390;2023-04-28T08:24:10;101127.97;;;12.06;49.21
56681;BME280;42558;52.388;13.390;2023-04-28T08:26:40;101125.52;;;12.20;49.71
56681;BME280;42558;52.388;13.390;2023-04-28T08:29:10;101123.23;;;12.50;49.50
56681;BME280;42558;52.388;13.390;2023-04-28T08:31:39;101123.15;;;12.59;48.72
56681;BME280;42558;52.388;13.390;2023-04-28T08:34:09;101122.55;;;11.96;49.13
56681;BME280;42558;52.388;13.390;2023-04-28T08:36:39;101119.40;;;12.11;49.57
56681;BME280;42558;52.388;13.390;2023-04-28T08:39:09;101118.46;;;12.06;48.99
56681;BME280;42558;52.388;13.390;2023-04-28T08:41:40;101112.98;;;12.19;49.59
56681;BME280;42558;52.388;13.390;2023-04-28T08:44:09;101109.70;;;12.55;48.56
56681;BME280;42558;52.388;13.390;2023-04-28T08:46:42;101119.42;;;12.14;48.91
56681;BME280;42558;52.388;13.390;2023-04-28T08:49:17;101109.30;;;12.67;48.44
56681;BME280;42558;52.388;13.390;2023-04-28T08:51:56;101104.61;;;13.28;47.89
56681;BME280;42558;52.388;13.390;2023-04-28T08:54:30;101108.55;;;12.79;48.20
56681;BME280;42558;52.388;13.390;2023-04-28T08:57:01;101100.61;;;12.98;48.17
56681;BME280;42558;52.388;13.390;2023-04-28T08:59:33;101096.04;;;13.00;48.85
56681;BME280;42558;52.388;13.390;2023-04-28T09:02:03;101093.10;;;12.87;48.65
56681;BME280;42558;52.388;13.390;2023-04-28T09:04:33;101087.37;;;12.79;49.34
56681;BME280;42558;52.388;13.390;2023-04-28T09:07:10;101084.13;;;13.31;48.47
56681;BME280;42558;52.388;13.390;2023-04-28T09:09:40;101079.23;;;12.95;48.53
56681;BME280;42558;52.388;13.390;2023-04-28T09:12:11;101076.99;;;13.23;48.33
56681;BME280;42558;52.388;13.390;2023-04-28T09:14:43;101073.09;;;13.20;48.06
56681;BME280;42558;52.388;13.390;2023-04-28T09:17:13;101067.16;;;13.52;48.40
56681;BME280;42558;52.388;13.390;2023-04-28T09:19:44;101067.30;;;13.75;47.33
56681;BME280;42558;52.388;13.390;2023-04-28T09:22:14;101062.68;;;13.68;46.73
56681;BME280;42558;52.388;13.390;2023-04-28T09:24:55;101059.53;;;13.78;46.92
56681;BME280;42558;52.388;13.390;2023-04-28T09:27:28;101060.27;;;13.79;45.78
56681;BME280;42558;52.388;13.390;2023-04-28T09:29:58;101059.02;;;13.49;46.21
56681;BME280;42558;52.388;13.390;2023-04-28T09:32:28;101057.60;;;13.25;46.94
56681;BME280;42558;52.388;13.390;2023-04-28T09:34:59;101056.08;;;13.59;45.82
56681;BME280;42558;52.388;13.390;2023-04-28T09:37:28;101052.92;;;13.64;45.95
56681;BME280;42558;52.388;13.390;2023-04-28T09:40:08;101045.73;;;14.16;45.45
56681;BME280;42558;52.388;13.390;2023-04-28T09:42:43;101038.91;;;14.35;44.79
56681;BME280;42558;52.388;13.390;2023-04-28T09:45:15;101035.29;;;14.65;44.48
56681;BME280;42558;52.388;13.390;2023-04-28T09:47:46;101039.19;;;14.77;44.46
56681;BME280;42558;52.388;13.390;2023-04-28T09:50:17;101036.52;;;14.75;44.27
56681;BME280;42558;52.388;13.390;2023-04-28T09:52:56;101030.31;;;14.83;43.66
56681;BME280;42558;52.388;13.390;2023-04-28T09:55:27;101029.58;;;14.57;45.57
56681;BME280;42558;52.388;13.390;2023-04-28T09:58:04;101032.47;;;14.91;43.22
56681;BME280;42558;52.388;13.390;2023-04-28T10:00:39;101030.77;;;14.34;44.06
56681;BME280;42558;52.388;13.390;2023-04-28T10:03:10;101025.36;;;14.60;43.95
56681;BME280;42558;52.388;13.390;2023-04-28T10:05:41;101017.05;;;15.21;43.60
56681;BME280;42558;52.388;13.390;2023-04-28T10:08:09;101007.09;;;15.41;42.68
56681;BME280;42558;52.388;13.390;2023-04-28T10:10:38;101012.95;;;15.36;42.65
56681;BME280;42558;52.388;13.390;2023-04-28T10:13:07;101009.40;;;15.38;43.06
56681;BME280;42558;52.388;13.390;2023-04-28T10:15:38;100999.36;;;15.80;41.77
56681;BME280;42558;52.388;13.390;2023-04-28T10:18:11;100997.77;;;16.14;42.43
56681;BME280;42558;52.388;13.390;2023-04-28T10:20:47;100994.42;;;16.12;41.64
56681;BME280;42558;52.388;13.390;2023-04-28T10:27:06;100986.70;;;15.47;41.31
56681;BME280;42558;52.388;13.390;2023-04-28T10:29:37;100988.49;;;15.38;41.97
56681;BME280;42558;52.388;13.390;2023-04-28T10:34:47;100979.75;;;16.36;40.81
56681;BME280;42558;52.388;13.390;2023-04-28T10:37:17;100972.41;;;16.68;40.18
56681;BME280;42558;52.388;13.390;2023-04-28T10:40:39;100968.21;;;16.63;40.61
56681;BME280;42558;52.388;13.390;2023-04-28T10:56:15;100955.16;;;15.45;42.56
56681;BME280;42558;52.388;13.390;2023-04-28T10:58:55;100945.59;;;15.93;42.19
56681;BME280;42558;52.388;13.390;2023-04-28T11:01:31;100947.73;;;15.92;42.16
56681;BME280;42558;52.388;13.390;2023-04-28T11:04:08;100943.16;;;16.15;42.24
56681;BME280;42558;52.388;13.390;2023-04-28T11:07:10;100944.72;;;15.90;42.15
56681;BME280;42558;52.388;13.390;2023-04-28T11:12:15;100943.52;;;15.80;42.84
56681;BME280;42558;52.388;13.390;2023-04-28T11:14:45;100940.42;;;15.56;43.18
56681;BME280;42558;52.388;13.390;2023-04-28T11:17:15;100943.00;;;15.25;43.65
56681;BME280;42558;52.388;13.390;2023-04-28T11:19:47;100950.69;;;14.89;43.74
56681;BME280;42558;52.388;13.390;2023-04-28T11:22:21;100944.12;;;14.98;44.65
56681;BME280;42558;52.388;13.390;2023-04-28T11:24:55;100942.21;;;15.51;43.78
56681;BME280;42558;52.388;13.390;2023-04-28T11:27:28;100941.81;;;15.67;43.51
56681;BME280;42558;52.388;13.390;2023-04-28T11:29:58;100938.80;;;15.65;42.84
56681;BME280;42558;52.388;13.390;2023-04-28T11:32:31;100940.63;;;15.45;43.15
56681;BME280;42558;52.388;13.390;2023-04-28T11:35:01;100939.41;;;15.40;43.59
56681;BME280;42558;52.388;13.390;2023-04-28T11:37:32;100935.52;;;15.37;43.14
56681;BME280;42558;52.388;13.390;2023-04-28T11:40:10;100935.27;;;15.63;43.74
56681;BME280;42558;52.388;13.390;2023-04-28T11:42:48;100929.50;;;15.84;43.83
56681;BME280;42558;52.388;13.390;2023-04-28T11:45:15;100930.27;;;15.73;43.27
56681;BME280;42558;52.388;13.390;2023-04-28T11:47:45;100928.15;;;15.69;42.94
56681;BME280;42558;52.388;13.390;2023-04-28T11:50:15;100924.39;;;15.30;44.16
56681;BME280;42558;52.388;13.390;2023-04-28T11:52:49;100923.11;;;15.37;44.16
56681;BME280;42558;52.388;13.390;2023-04-28T11:55:19;100919.69;;;15.57;43.85
56681;BME280;42558;52.388;13.390;2023-04-28T11:58:21;100917.90;;;15.61;44.03
56681;BME280;42558;52.388;13.390;2023-04-28T12:01:12;100915.30;;;15.87;42.86
56681;BME280;42558;52.388;13.390;2023-04-28T12:03:45;100907.77;;;15.72;42.95
56681;BME280;42558;52.388;13.390;2023-04-28T12:06:17;100907.64;;;15.54;42.98
56681;BME280;42558;52.388;13.390;2023-04-28T12:08:48;100907.91;;;15.76;43.64
56681;BME280;42558;52.388;13.390;2023-04-28T12:11:18;100900.42;;;16.12;45.23
56681;BME280;42558;52.388;13.390;2023-04-28T12:14:05;100897.86;;;16.66;41.80
56681;BME280;42558;52.388;13.390;2023-04-28T12:16:41;100899.58;;;16.53;43.19
56681;BME280;42558;52.388;13.390;2023-04-28T12:19:14;100899.38;;;16.33;42.06
56681;BME280;42558;52.388;13.390;2023-04-28T12:21:43;100896.18;;;16.12;41.77
56681;BME280;42558;52.388;13.390;2023-04-28T12:24:19;100896.73;;;16.10;42.56
56681;BME280;42558;52.388;13.390;2023-04-28T12:26:50;100888.59;;;16.06;42.23
56681;BME280;42558;52.388;13.390;2023-04-28T12:29:37;100886.20;;;16.19;42.25
56681;BME280;42558;52.388;13.390;2023-04-28T12:32:09;100885.99;;;16.44;41.88
56681;BME280;42558;52.388;13.390;2023-04-28T12:34:41;100887.84;;;16.56;43.05
56681;BME280;42558;52.388;13.390;2023-04-28T12:37:12;100885.00;;;16.35;41.20
56681;BME280;42558;52.388;13.390;2023-04-28T12:39:42;100880.83;;;15.99;41.94
56681;BME280;42558;52.388;13.390;2023-04-28T12:42:14;100880.38;;;15.87;42.39
56681;BME280;42558;52.388;13.390;2023-04-28T12:44:45;100878.08;;;16.13;43.06
56681;BME280;42558;52.388;13.390;2023-04-28T12:47:15;100878.09;;;15.83;42.54
56681;BME280;42558;52.388;13.390;2023-04-28T12:49:49;100876.10;;;15.91;43.61
56681;BME280;42558;52.388;13.390;2023-04-28T12:52:21;100873.57;;;15.97;43.71
56681;BME280;42558;52.388;13.390;2023-04-28T12:54:51;100869.69;;;15.95;43.52
56681;BME280;42558;52.388;13.390;2023-04-28T12:57:21;100866.52;;;15.65;43.40
56681;BME280;42558;52.388;13.390;2023-04-28T12:59:51;100868.23;;;15.74;44.03
56681;BME280;42558;52.388;13.390;2023-04-28T13:02:22;100863.68;;;15.91;43.78
56681;BME280;42558;52.388;13.390;2023-04-28T13:04:52;100861.52;;;15.96;44.19
56681;BME280;42558;52.388;13.390;2023-04-28T13:07:22;100858.66;;;15.99;44.60
56681;BME280;42558;52.388;13.390;2023-04-28T13:09:54;100859.13;;;15.79;44.73
56681;BME280;42558;52.388;13.390;2023-04-28T13:12:24;100860.63;;;15.67;45.17
56681;BME280;42558;52.388;13.390;2023-04-28T13:14:54;100858.06;;;15.45;44.83
56681;BME280;42558;52.388;13.390;2023-04-28T13:17:24;100856.42;;;15.53;45.49
56681;BME280;42558;52.388;13.390;2023-04-28T13:19:54;100855.73;;;15.49;45.22
56681;BME280;42558;52.388;13.390;2023-04-28T13:22:24;100853.29;;;15.44;46.44
56681;BME280;42558;52.388;13.390;2023-04-28T13:24:54;100853.98;;;15.47;46.67